sensor_id;sensor_type;location;lat;lon;timestamp;temperature;humidity
67901;DHT22;54700;51.796;10.956;2023-04-24T00:00:42;12.50;86.00
67901;DHT22;54700;51.796;10.956;2023-04-24T00:03:10;12.50;86.80
67901;DHT22;54700;51.796;10.956;2023-04-24T00:05:37;12.50;86.90
67901;DHT22;54700;51.796;10.956;2023-04-24T00:08:05;12.40;86.80
67901;DHT22;54700;51.796;10.956;2023-04-24T00:10:32;12.40;89.90
67901;DHT22;54700;51.796;10.956;2023-04-24T00:12:59;12.40;89.70
67901;DHT22;54700;51.796;10.956;2023-04-24T00:15:27;12.40;89.90
67901;DHT22;54700;51.796;10.956;2023-04-24T00:17:55;12.40;88.30
67901;DHT22;54700;51.796;10.956;2023-04-24T00:20:22;12.40;90.00
67901;DHT22;54700;51.796;10.956;2023-04-24T00:22:57;12.40;90.50
67901;DHT22;54700;51.796;10.956;2023-04-24T00:25:24;12.40;90.20
67901;DHT22;54700;51.796;10.956;2023-04-24T00:28:02;12.30;90.30
67901;DHT22;54700;51.796;10.956;2023-04-24T00:30:31;12.30;91.40
67901;DHT22;54700;51.796;10.956;2023-04-24T00:33:09;12.30;90.40
67901;DHT22;54700;51.796;10.956;2023-04-24T00:35:52;12.30;90.20
67901;DHT22;54700;51.796;10.956;2023-04-24T00:38:24;12.20;91.80
67901;DHT22;54700;51.796;10.956;2023-04-24T00:40:58;12.20;92.00
67901;DHT22;54700;51.796;10.956;2023-04-24T00:43:30;12.20;91.30
67901;DHT22;54700;51.796;10.956;2023-04-24T00:45:57;12.10;92.00
67901;DHT22;54700;51.796;10.956;2023-04-24T00:48:29;12.00;93.80
67901;DHT22;54700;51.796;10.956;2023-04-24T00:50:58;12.00;93.00
67901;DHT22;54700;51.796;10.956;2023-04-24T00:53:32;12.00;93.80
67901;DHT22;54700;51.796;10.956;2023-04-24T00:56:00;12.00;93.70
67901;DHT22;54700;51.796;10.956;2023-04-24T00:58:30;12.00;93.70
67901;DHT22;54700;51.796;10.956;2023-04-24T01:01:09;11.90;93.30
67901;DHT22;54700;51.796;10.956;2023-04-24T01:03:47;11.90;94.60
67901;DHT22;54700;51.796;10.956;2023-04-24T01:06:21;11.80;94.90
67901;DHT22;54700;51.796;10.956;2023-04-24T01:08:50;11.80;95.50
67901;DHT22;54700;51.796;10.956;2023-04-24T01:11:27;11.80;95.70
67901;DHT22;54700;51.796;10.956;2023-04-24T01:13:57;11.70;95.40
67901;DHT22;54700;51.796;10.956;2023-04-24T01:16:25;11.70;96.30
67901;DHT22;54700;51.796;10.956;2023-04-24T01:19:00;11.70;95.90
67901;DHT22;54700;51.796;10.956;2023-04-24T01:21:30;11.60;96.80
67901;DHT22;54700;51.796;10.956;2023-04-24T01:24:16;11.60;96.70
67901;DHT22;54700;51.796;10.956;2023-04-24T01:26:48;11.60;97.30
67901;DHT22;54700;51.796;10.956;2023-04-24T01:29:15;11.60;97.30
67901;DHT22;54700;51.796;10.956;2023-04-24T01:31:49;11.60;97.20
67901;DHT22;54700;51.796;10.956;2023-04-24T01:34:19;11.50;98.10
67901;DHT22;54700;51.796;10.956;2023-04-24T01:36:46;11.50;98.30
67901;DHT22;54700;51.796;10.956;2023-04-24T01:39:17;11.50;98.50
67901;DHT22;54700;51.796;10.956;2023-04-24T01:41:45;11.40;98.60
67901;DHT22;54700;51.796;10.956;2023-04-24T01:44:15;11.40;98.70
67901;DHT22;54700;51.796;10.956;2023-04-24T01:46:42;11.40;99.00
67901;DHT22;54700;51.796;10.956;2023-04-24T01:49:11;11.40;98.70
67901;DHT22;54700;51.796;10.956;2023-04-24T01:51:38;11.40;98.30
67901;DHT22;54700;51.796;10.956;2023-04-24T01:54:05;11.40;98.60
67901;DHT22;54700;51.796;10.956;2023-04-24T01:56:34;11.40;98.70
67901;DHT22;54700;51.796;10.956;2023-04-24T01:59:02;11.30;98.50
67901;DHT22;54700;51.796;10.956;2023-04-24T02:01:35;11.30;98.40
67901;DHT22;54700;51.796;10.956;2023-04-24T02:04:06;11.30;98.40
67901;DHT22;54700;51.796;10.956;2023-04-24T02:06:34;11.30;97.60
67901;DHT22;54700;51.796;10.956;2023-04-24T02:09:04;11.30;97.30
67901;DHT22;54700;51.796;10.956;2023-04-24T02:11:31;11.30;96.60
67901;DHT22;54700;51.796;10.956;2023-04-24T02:14:00;11.30;96.20
67901;DHT22;54700;51.796;10.956;2023-04-24T02:16:27;11.30;96.00
67901;DHT22;54700;51.796;10.956;2023-04-24T02:18:57;11.30;96.20
67901;DHT22;54700;51.796;10.956;2023-04-24T02:21:24;11.30;95.70
67901;DHT22;54700;51.796;10.956;2023-04-24T02:23:52;11.30;95.70
67901;DHT22;54700;51.796;10.956;2023-04-24T02:26:19;11.30;95.20
67901;DHT22;54700;51.796;10.956;2023-04-24T02:28:46;11.20;94.90
67901;DHT22;54700;51.796;10.956;2023-04-24T02:31:15;11.20;94.90
67901;DHT22;54700;51.796;10.956;2023-04-24T02:33:42;11.20;94.80
67901;DHT22;54700;51.796;10.956;2023-04-24T02:36:09;11.20;94.00
67901;DHT22;54700;51.796;10.956;2023-04-24T02:38:38;11.20;93.50
67901;DHT22;54700;51.796;10.956;2023-04-24T02:41:05;11.20;93.20
67901;DHT22;54700;51.796;10.956;2023-04-24T02:43:32;11.20;92.90
67901;DHT22;54700;51.796;10.956;2023-04-24T02:45:59;11.20;92.80
67901;DHT22;54700;51.796;10.956;2023-04-24T02:48:28;11.20;92.80
67901;DHT22;54700;51.796;10.956;2023-04-24T02:50:55;11.20;92.90
67901;DHT22;54700;51.796;10.956;2023-04-24T02:53:25;11.10;93.00
67901;DHT22;54700;51.796;10.956;2023-04-24T02:55:52;11.10;92.80
67901;DHT22;54700;51.796;10.956;2023-04-24T02:58:19;11.10;93.10
67901;DHT22;54700;51.796;10.956;2023-04-24T03:00:46;11.10;93.20
67901;DHT22;54700;51.796;10.956;2023-04-24T03:03:13;11.10;93.20
67901;DHT22;54700;51.796;10.956;2023-04-24T03:05:41;11.00;93.50
67901;DHT22;54700;51.796;10.956;2023-04-24T03:08:08;11.00;93.60
67901;DHT22;54700;51.796;10.956;2023-04-24T03:10:35;11.00;93.70
67901;DHT22;54700;51.796;10.956;2023-04-24T03:13:02;11.00;93.70
67901;DHT22;54700;51.796;10.956;2023-04-24T03:15:29;11.00;93.70
67901;DHT22;54700;51.796;10.956;2023-04-24T03:17:56;11.00;93.60
67901;DHT22;54700;51.796;10.956;2023-04-24T03:20:23;11.00;93.70
67901;DHT22;54700;51.796;10.956;2023-04-24T03:22:52;11.00;94.00
67901;DHT22;54700;51.796;10.956;2023-04-24T03:25:24;11.00;94.00
67901;DHT22;54700;51.796;10.956;2023-04-24T03:27:54;10.90;94.40
67901;DHT22;54700;51.796;10.956;2023-04-24T03:30:21;10.90;94.50
67901;DHT22;54700;51.796;10.956;2023-04-24T03:32:51;10.90;95.00
67901;DHT22;54700;51.796;10.956;2023-04-24T03:35:18;10.80;95.60
67901;DHT22;54700;51.796;10.956;2023-04-24T03:37:46;10.80;96.10
67901;DHT22;54700;51.796;10.956;2023-04-24T03:40:15;10.70;96.70
67901;DHT22;54700;51.796;10.956;2023-04-24T03:42:42;10.70;97.00
67901;DHT22;54700;51.796;10.956;2023-04-24T03:45:09;10.70;97.10
67901;DHT22;54700;51.796;10.956;2023-04-24T03:47:37;10.70;97.40
67901;DHT22;54700;51.796;10.956;2023-04-24T03:50:05;10.70;97.50
67901;DHT22;54700;51.796;10.956;2023-04-24T03:52:32;10.70;97.90
67901;DHT22;54700;51.796;10.956;2023-04-24T03:55:00;10.70;97.60
67901;DHT22;54700;51.796;10.956;2023-04-24T03:57:28;10.70;97.70
67901;DHT22;54700;51.796;10.956;2023-04-24T03:59:56;10.60;97.80
67901;DHT22;54700;51.796;10.956;2023-04-24T04:02:24;10.60;97.90
67901;DHT22;54700;51.796;10.956;2023-04-24T04:04:51;10.70;98.20
67901;DHT22;54700;51.796;10.956;2023-04-24T04:07:20;10.60;98.60
67901;DHT22;54700;51.796;10.956;2023-04-24T04:09:48;10.60;98.80
67901;DHT22;54700;51.796;10.956;2023-04-24T04:12:16;10.60;98.90
67901;DHT22;54700;51.796;10.956;2023-04-24T04:14:44;10.60;99.10
67901;DHT22;54700;51.796;10.956;2023-04-24T04:17:11;10.60;99.50
67901;DHT22;54700;51.796;10.956;2023-04-24T04:19:39;10.60;99.50
67901;DHT22;54700;51.796;10.956;2023-04-24T04:22:06;10.60;99.60
67901;DHT22;54700;51.796;10.956;2023-04-24T04:24:33;10.60;99.60
67901;DHT22;54700;51.796;10.956;2023-04-24T04:27:03;10.70;99.40
67901;DHT22;54700;51.796;10.956;2023-04-24T04:29:33;10.70;99.20
67901;DHT22;54700;51.796;10.956;2023-04-24T04:32:05;10.80;99.00
67901;DHT22;54700;51.796;10.956;2023-04-24T04:34:35;10.80;98.30
67901;DHT22;54700;51.796;10.956;2023-04-24T04:37:06;10.90;98.10
67901;DHT22;54700;51.796;10.956;2023-04-24T04:39:36;11.10;97.50
67901;DHT22;54700;51.796;10.956;2023-04-24T04:42:03;11.80;94.50
67901;DHT22;54700;51.796;10.956;2023-04-24T04:44:30;12.60;88.20
67901;DHT22;54700;51.796;10.956;2023-04-24T04:47:07;13.00;80.10
67901;DHT22;54700;51.796;10.956;2023-04-24T04:53:01;13.20;80.00
67901;DHT22;54700;51.796;10.956;2023-04-24T04:55:49;13.00;79.80
67901;DHT22;54700;51.796;10.956;2023-04-24T05:01:27;12.40;86.20
67901;DHT22;54700;51.796;10.956;2023-04-24T05:04:23;12.10;90.30
67901;DHT22;54700;51.796;10.956;2023-04-24T05:07:08;11.90;92.10
67901;DHT22;54700;51.796;10.956;2023-04-24T05:09:40;11.70;93.70
67901;DHT22;54700;51.796;10.956;2023-04-24T05:12:13;11.70;94.00
67901;DHT22;54700;51.796;10.956;2023-04-24T05:14:47;11.70;94.90
67901;DHT22;54700;51.796;10.956;2023-04-24T05:17:28;11.60;95.30
67901;DHT22;54700;51.796;10.956;2023-04-24T05:23:07;11.60;95.40
67901;DHT22;54700;51.796;10.956;2023-04-24T05:26:16;11.60;95.70
67901;DHT22;54700;51.796;10.956;2023-04-24T05:29:00;11.70;95.20
67901;DHT22;54700;51.796;10.956;2023-04-24T05:31:41;11.70;95.60
67901;DHT22;54700;51.796;10.956;2023-04-24T05:34:13;11.70;95.30
67901;DHT22;54700;51.796;10.956;2023-04-24T05:37:07;11.80;95.10
67901;DHT22;54700;51.796;10.956;2023-04-24T05:39:39;11.80;94.60
67901;DHT22;54700;51.796;10.956;2023-04-24T05:42:14;11.90;93.80
67901;DHT22;54700;51.796;10.956;2023-04-24T05:44:55;11.90;93.40
67901;DHT22;54700;51.796;10.956;2023-04-24T05:47:45;12.00;92.90
67901;DHT22;54700;51.796;10.956;2023-04-24T05:50:23;12.00;93.10
67901;DHT22;54700;51.796;10.956;2023-04-24T05:52:52;12.20;92.70
67901;DHT22;54700;51.796;10.956;2023-04-24T05:58:53;12.20;91.00
67901;DHT22;54700;51.796;10.956;2023-04-24T06:01:46;12.20;91.10
67901;DHT22;54700;51.796;10.956;2023-04-24T06:24:44;12.10;91.70
67901;DHT22;54700;51.796;10.956;2023-04-24T06:27:14;12.10;91.30
67901;DHT22;54700;51.796;10.956;2023-04-24T06:33:04;12.30;90.80
67901;DHT22;54700;51.796;10.956;2023-04-24T06:37:15;12.30;90.20
67901;DHT22;54700;51.796;10.956;2023-04-24T06:42:49;12.40;88.90
67901;DHT22;54700;51.796;10.956;2023-04-24T06:48:49;12.40;89.00
67901;DHT22;54700;51.796;10.956;2023-04-24T06:54:48;12.40;90.20
67901;DHT22;54700;51.796;10.956;2023-04-24T07:15:14;12.80;88.90
67901;DHT22;54700;51.796;10.956;2023-04-24T07:18:38;12.90;85.00
67901;DHT22;54700;51.796;10.956;2023-04-24T07:24:58;13.10;78.50
67901;DHT22;54700;51.796;10.956;2023-04-24T07:28:10;13.20;74.40
67901;DHT22;54700;51.796;10.956;2023-04-24T07:37:10;13.10;71.60
67901;DHT22;54700;51.796;10.956;2023-04-24T07:39:49;13.10;71.80
67901;DHT22;54700;51.796;10.956;2023-04-24T07:42:42;13.10;72.80
67901;DHT22;54700;51.796;10.956;2023-04-24T07:46:13;13.00;72.30
67901;DHT22;54700;51.796;10.956;2023-04-24T07:49:03;13.00;72.80
67901;DHT22;54700;51.796;10.956;2023-04-24T07:51:40;13.10;70.20
67901;DHT22;54700;51.796;10.956;2023-04-24T07:54:26;13.40;69.00
67901;DHT22;54700;51.796;10.956;2023-04-24T07:57:28;13.70;66.50
67901;DHT22;54700;51.796;10.956;2023-04-24T08:00:15;13.90;64.40
67901;DHT22;54700;51.796;10.956;2023-04-24T08:09:53;14.10;60.80
67901;DHT22;54700;51.796;10.956;2023-04-24T08:12:32;14.00;61.30
67901;DHT22;54700;51.796;10.956;2023-04-24T08:15:28;13.90;60.80
67901;DHT22;54700;51.796;10.956;2023-04-24T08:18:01;13.80;60.40
67901;DHT22;54700;51.796;10.956;2023-04-24T08:21:05;13.80;60.70
67901;DHT22;54700;51.796;10.956;2023-04-24T08:23:53;13.80;60.90
67901;DHT22;54700;51.796;10.956;2023-04-24T08:26:45;13.90;60.70
67901;DHT22;54700;51.796;10.956;2023-04-24T08:29:22;13.70;61.10
67901;DHT22;54700;51.796;10.956;2023-04-24T08:32:04;13.80;60.70
67901;DHT22;54700;51.796;10.956;2023-04-24T08:34:39;13.90;61.10
67901;DHT22;54700;51.796;10.956;2023-04-24T08:37:12;13.90;59.70
67901;DHT22;54700;51.796;10.956;2023-04-24T08:39:48;13.90;59.80
67901;DHT22;54700;51.796;10.956;2023-04-24T08:42:30;13.60;57.70
67901;DHT22;54700;51.796;10.956;2023-04-24T08:45:07;13.50;58.30
67901;DHT22;54700;51.796;10.956;2023-04-24T08:47:43;13.30;59.10
67901;DHT22;54700;51.796;10.956;2023-04-24T08:50:37;13.20;60.00
67901;DHT22;54700;51.796;10.956;2023-04-24T08:56:38;13.10;58.50
67901;DHT22;54700;51.796;10.956;2023-04-24T09:03:24;13.30;59.00
67901;DHT22;54700;51.796;10.956;2023-04-24T09:06:04;13.50;57.00
67901;DHT22;54700;51.796;10.956;2023-04-24T09:08:58;13.50;54.00
67901;DHT22;54700;51.796;10.956;2023-04-24T09:11:45;13.50;52.50
67901;DHT22;54700;51.796;10.956;2023-04-24T09:15:22;13.50;50.50
67901;DHT22;54700;51.796;10.956;2023-04-24T09:18:26;13.60;52.10
67901;DHT22;54700;51.796;10.956;2023-04-24T09:21:03;13.70;52.90
67901;DHT22;54700;51.796;10.956;2023-04-24T09:24:05;13.70;52.00
67901;DHT22;54700;51.796;10.956;2023-04-24T09:26:55;14.00;51.70
67901;DHT22;54700;51.796;10.956;2023-04-24T09:29:24;14.00;48.70
67901;DHT22;54700;51.796;10.956;2023-04-24T09:32:11;13.90;48.70
67901;DHT22;54700;51.796;10.956;2023-04-24T09:38:22;13.80;50.60
67901;DHT22;54700;51.796;10.956;2023-04-24T09:41:14;13.90;50.90
67901;DHT22;54700;51.796;10.956;2023-04-24T09:44:01;14.10;50.50
67901;DHT22;54700;51.796;10.956;2023-04-24T09:47:03;14.20;49.60
67901;DHT22;54700;51.796;10.956;2023-04-24T09:50:09;14.30;48.70
67901;DHT22;54700;51.796;10.956;2023-04-24T09:53:09;14.70;48.00
67901;DHT22;54700;51.796;10.956;2023-04-24T09:59:23;14.70;47.30
67901;DHT22;54700;51.796;10.956;2023-04-24T10:12:36;14.90;45.90
67901;DHT22;54700;51.796;10.956;2023-04-24T10:15:26;15.00;45.00
67901;DHT22;54700;51.796;10.956;2023-04-24T10:18:05;15.20;45.80
67901;DHT22;54700;51.796;10.956;2023-04-24T10:20:51;15.40;46.10
67901;DHT22;54700;51.796;10.956;2023-04-24T10:23:31;15.20;45.70
67901;DHT22;54700;51.796;10.956;2023-04-24T10:26:08;14.90;45.70
67901;DHT22;54700;51.796;10.956;2023-04-24T10:28:52;14.70;46.00
67901;DHT22;54700;51.796;10.956;2023-04-24T10:31:38;14.80;47.80
67901;DHT22;54700;51.796;10.956;2023-04-24T10:34:20;14.80;47.10
67901;DHT22;54700;51.796;10.956;2023-04-24T10:37:00;14.60;47.10
67901;DHT22;54700;51.796;10.956;2023-04-24T10:39:49;14.80;48.30
67901;DHT22;54700;51.796;10.956;2023-04-24T10:45:27;14.70;46.20
67901;DHT22;54700;51.796;10.956;2023-04-24T10:48:03;14.70;46.30
67901;DHT22;54700;51.796;10.956;2023-04-24T10:50:42;14.70;46.70
67901;DHT22;54700;51.796;10.956;2023-04-24T10:53:20;14.60;46.90
67901;DHT22;54700;51.796;10.956;2023-04-24T10:56:02;14.50;47.50
67901;DHT22;54700;51.796;10.956;2023-04-24T10:58:44;14.60;47.70
67901;DHT22;54700;51.796;10.956;2023-04-24T11:01:23;14.60;48.00
67901;DHT22;54700;51.796;10.956;2023-04-24T11:03:56;14.70;47.60
67901;DHT22;54700;51.796;10.956;2023-04-24T11:06:31;14.60;47.50
67901;DHT22;54700;51.796;10.956;2023-04-24T11:09:21;14.60;47.50
67901;DHT22;54700;51.796;10.956;2023-04-24T11:12:06;14.70;46.90
67901;DHT22;54700;51.796;10.956;2023-04-24T11:20:32;15.00;46.00
67901;DHT22;54700;51.796;10.956;2023-04-24T11:23:19;15.10;45.40
67901;DHT22;54700;51.796;10.956;2023-04-24T11:26:11;15.20;45.00
67901;DHT22;54700;51.796;10.956;2023-04-24T11:28:51;15.40;45.70
67901;DHT22;54700;51.796;10.956;2023-04-24T11:34:16;15.90;45.00
67901;DHT22;54700;51.796;10.956;2023-04-24T11:37:07;15.60;43.90
67901;DHT22;54700;51.796;10.956;2023-04-24T11:40:26;15.40;45.50
67901;DHT22;54700;51.796;10.956;2023-04-24T11:43:21;15.20;46.40
67901;DHT22;54700;51.796;10.956;2023-04-24T11:46:21;15.10;46.30
67901;DHT22;54700;51.796;10.956;2023-04-24T11:49:15;14.80;47.00
67901;DHT22;54700;51.796;10.956;2023-04-24T11:51:47;15.00;47.60
67901;DHT22;54700;51.796;10.956;2023-04-24T11:54:16;14.90;47.40
67901;DHT22;54700;51.796;10.956;2023-04-24T11:56:54;15.00;48.10
67901;DHT22;54700;51.796;10.956;2023-04-24T11:59:36;14.90;47.40
67901;DHT22;54700;51.796;10.956;2023-04-24T12:02:07;15.10;48.30
67901;DHT22;54700;51.796;10.956;2023-04-24T12:04:52;15.30;48.40
67901;DHT22;54700;51.796;10.956;2023-04-24T12:07:22;15.50;48.20
67901;DHT22;54700;51.796;10.956;2023-04-24T12:09:56;15.70;47.60
67901;DHT22;54700;51.796;10.956;2023-04-24T12:12:38;15.50;47.70
67901;DHT22;54700;51.796;10.956;2023-04-24T12:15:06;15.40;47.90
67901;DHT22;54700;51.796;10.956;2023-04-24T12:17:41;15.40;48.30
67901;DHT22;54700;51.796;10.956;2023-04-24T12:20:14;15.50;47.60
67901;DHT22;54700;51.796;10.956;2023-04-24T12:22:45;15.50;47.90
67901;DHT22;54700;51.796;10.956;2023-04-24T12:25:29;15.50;47.40
67901;DHT22;54700;51.796;10.956;2023-04-24T12:28:11;15.10;46.70
67901;DHT22;54700;51.796;10.956;2023-04-24T12:30:46;15.20;47.90
67901;DHT22;54700;51.796;10.956;2023-04-24T12:33:18;15.10;47.50
67901;DHT22;54700;51.796;10.956;2023-04-24T12:35:56;15.20;48.50
67901;DHT22;54700;51.796;10.956;2023-04-24T12:38:43;15.10;48.40
67901;DHT22;54700;51.796;10.956;2023-04-24T12:41:13;14.70;47.30
67901;DHT22;54700;51.796;10.956;2023-04-24T12:43:51;14.50;48.70
67901;DHT22;54700;51.796;10.956;2023-04-24T12:46:25;14.60;49.30
67901;DHT22;54700;51.796;10.956;2023-04-24T12:48:55;14.50;49.60
67901;DHT22;54700;51.796;10.956;2023-04-24T12:51:23;14.30;50.90
67901;DHT22;54700;51.796;10.956;2023-04-24T12:53:51;13.90;53.40
67901;DHT22;54700;51.796;10.956;2023-04-24T12:56:23;13.60;57.10
67901;DHT22;54700;51.796;10.956;2023-04-24T12:58:56;13.30;58.60
67901;DHT22;54700;51.796;10.956;2023-04-24T13:01:28;13.10;60.70
67901;DHT22;54700;51.796;10.956;2023-04-24T13:04:01;13.00;62.50
67901;DHT22;54700;51.796;10.956;2023-04-24T13:06:30;12.70;66.00
67901;DHT22;54700;51.796;10.956;2023-04-24T13:09:00;12.50;65.90
67901;DHT22;54700;51.796;10.956;2023-04-24T13:11:32;12.50;70.70
67901;DHT22;54700;51.796;10.956;2023-04-24T13:14:00;12.60;65.70
67901;DHT22;54700;51.796;10.956;2023-04-24T13:16:30;13.00;65.50
67901;DHT22;54700;51.796;10.956;2023-04-24T13:18:58;13.20;62.30
67901;DHT22;54700;51.796;10.956;2023-04-24T13:21:25;13.30;61.60
67901;DHT22;54700;51.796;10.956;2023-04-24T13:23:53;13.00;61.80
67901;DHT22;54700;51.796;10.956;2023-04-24T13:26:20;12.60;62.00
67901;DHT22;54700;51.796;10.956;2023-04-24T13:28:48;12.30;63.10
67901;DHT22;54700;51.796;10.956;2023-04-24T13:31:17;12.10;64.00
67901;DHT22;54700;51.796;10.956;2023-04-24T13:33:50;12.20;64.80
67901;DHT22;54700;51.796;10.956;2023-04-24T13:36:24;12.40;64.60
67901;DHT22;54700;51.796;10.956;2023-04-24T13:38:52;12.70;63.90
67901;DHT22;54700;51.796;10.956;2023-04-24T13:41:22;12.70;60.10
67901;DHT22;54700;51.796;10.956;2023-04-24T13:43:50;12.70;59.60
67901;DHT22;54700;51.796;10.956;2023-04-24T13:46:17;12.80;61.00
67901;DHT22;54700;51.796;10.956;2023-04-24T13:48:44;13.00;60.20
67901;DHT22;54700;51.796;10.956;2023-04-24T13:51:11;13.20;59.50
67901;DHT22;54700;51.796;10.956;2023-04-24T13:53:38;13.40;57.70
67901;DHT22;54700;51.796;10.956;2023-04-24T13:56:06;13.40;56.70
67901;DHT22;54700;51.796;10.956;2023-04-24T13:58:34;13.20;57.70
67901;DHT22;54700;51.796;10.956;2023-04-24T14:01:07;13.20;56.40
67901;DHT22;54700;51.796;10.956;2023-04-24T14:03:37;13.00;56.80
67901;DHT22;54700;51.796;10.956;2023-04-24T14:06:10;12.60;56.90
67901;DHT22;54700;51.796;10.956;2023-04-24T14:08:38;12.40;58.40
67901;DHT22;54700;51.796;10.956;2023-04-24T14:11:05;12.60;57.50
67901;DHT22;54700;51.796;10.956;2023-04-24T14:13:32;12.50;58.60
67901;DHT22;54700;51.796;10.956;2023-04-24T14:16:00;12.60;57.80
67901;DHT22;54700;51.796;10.956;2023-04-24T14:18:28;12.90;56.60
67901;DHT22;54700;51.796;10.956;2023-04-24T14:20:56;12.70;56.20
67901;DHT22;54700;51.796;10.956;2023-04-24T14:23:23;12.60;56.80
67901;DHT22;54700;51.796;10.956;2023-04-24T14:25:53;12.40;57.20
67901;DHT22;54700;51.796;10.956;2023-04-24T14:28:21;12.20;57.50
67901;DHT22;54700;51.796;10.956;2023-04-24T14:30:48;12.20;58.40
67901;DHT22;54700;51.796;10.956;2023-04-24T14:33:15;12.30;58.50
67901;DHT22;54700;51.796;10.956;2023-04-24T14:35:47;12.30;58.20
67901;DHT22;54700;51.796;10.956;2023-04-24T14:38:14;12.30;58.80
67901;DHT22;54700;51.796;10.956;2023-04-24T14:40:41;12.40;59.20
67901;DHT22;54700;51.796;10.956;2023-04-24T14:43:09;12.70;59.10
67901;DHT22;54700;51.796;10.956;2023-04-24T14:45:36;12.50;59.40
67901;DHT22;54700;51.796;10.956;2023-04-24T14:48:03;12.20;61.80
67901;DHT22;54700;51.796;10.956;2023-04-24T14:50:31;12.20;65.60
67901;DHT22;54700;51.796;10.956;2023-04-24T14:52:59;12.10;67.70
67901;DHT22;54700;51.796;10.956;2023-04-24T14:55:27;11.90;65.60
67901;DHT22;54700;51.796;10.956;2023-04-24T14:57:54;11.90;64.70
67901;DHT22;54700;51.796;10.956;2023-04-24T15:00:22;11.70;65.60
67901;DHT22;54700;51.796;10.956;2023-04-24T15:02:49;11.80;62.20
67901;DHT22;54700;51.796;10.956;2023-04-24T15:05:16;11.70;62.30
67901;DHT22;54700;51.796;10.956;2023-04-24T15:07:44;11.60;62.60
67901;DHT22;54700;51.796;10.956;2023-04-24T15:10:13;11.70;62.30
67901;DHT22;54700;51.796;10.956;2023-04-24T15:12:40;11.50;61.50
67901;DHT22;54700;51.796;10.956;2023-04-24T15:15:07;11.40;62.90
67901;DHT22;54700;51.796;10.956;2023-04-24T15:17:37;11.50;63.10
67901;DHT22;54700;51.796;10.956;2023-04-24T15:20:06;11.60;62.30
67901;DHT22;54700;51.796;10.956;2023-04-24T15:22:35;11.60;62.30
67901;DHT22;54700;51.796;10.956;2023-04-24T15:25:02;11.60;61.90
67901;DHT22;54700;51.796;10.956;2023-04-24T15:27:40;11.60;62.50
67901;DHT22;54700;51.796;10.956;2023-04-24T15:30:08;11.50;62.50
67901;DHT22;54700;51.796;10.956;2023-04-24T15:32:44;11.40;63.00
67901;DHT22;54700;51.796;10.956;2023-04-24T15:35:12;11.30;63.90
67901;DHT22;54700;51.796;10.956;2023-04-24T15:37:40;11.40;64.20
67901;DHT22;54700;51.796;10.956;2023-04-24T15:40:07;11.30;65.40
67901;DHT22;54700;51.796;10.956;2023-04-24T15:42:38;11.20;66.70
67901;DHT22;54700;51.796;10.956;2023-04-24T15:45:07;10.90;68.50
67901;DHT22;54700;51.796;10.956;2023-04-24T15:47:35;10.90;69.60
67901;DHT22;54700;51.796;10.956;2023-04-24T15:50:03;10.90;69.90
67901;DHT22;54700;51.796;10.956;2023-04-24T15:52:33;10.80;70.90
67901;DHT22;54700;51.796;10.956;2023-04-24T15:55:00;10.80;71.50
67901;DHT22;54700;51.796;10.956;2023-04-24T15:57:28;10.80;70.30
67901;DHT22;54700;51.796;10.956;2023-04-24T15:59:57;10.60;70.00
67901;DHT22;54700;51.796;10.956;2023-04-24T16:02:24;10.60;70.70
67901;DHT22;54700;51.796;10.956;2023-04-24T16:04:52;10.50;71.90
67901;DHT22;54700;51.796;10.956;2023-04-24T16:07:18;10.50;72.90
67901;DHT22;54700;51.796;10.956;2023-04-24T16:09:45;10.60;72.20
67901;DHT22;54700;51.796;10.956;2023-04-24T16:12:12;10.50;71.60
67901;DHT22;54700;51.796;10.956;2023-04-24T16:14:39;10.50;71.80
67901;DHT22;54700;51.796;10.956;2023-04-24T16:17:08;10.60;72.10
67901;DHT22;54700;51.796;10.956;2023-04-24T16:19:35;10.60;70.90
67901;DHT22;54700;51.796;10.956;2023-04-24T16:22:05;10.70;70.60
67901;DHT22;54700;51.796;10.956;2023-04-24T16:24:35;10.80;69.30
67901;DHT22;54700;51.796;10.956;2023-04-24T16:27:02;10.70;69.30
67901;DHT22;54700;51.796;10.956;2023-04-24T16:29:31;10.70;70.50
67901;DHT22;54700;51.796;10.956;2023-04-24T16:32:02;10.70;70.00
67901;DHT22;54700;51.796;10.956;2023-04-24T16:34:36;10.80;70.90
67901;DHT22;54700;51.796;10.956;2023-04-24T16:37:03;10.60;70.90
67901;DHT22;54700;51.796;10.956;2023-04-24T16:39:31;10.50;72.10
67901;DHT22;54700;51.796;10.956;2023-04-24T16:41:59;10.40;73.70
67901;DHT22;54700;51.796;10.956;2023-04-24T16:44:27;10.40;72.80
67901;DHT22;54700;51.796;10.956;2023-04-24T16:46:54;10.40;73.30
67901;DHT22;54700;51.796;10.956;2023-04-24T16:49:23;10.30;74.80
67901;DHT22;54700;51.796;10.956;2023-04-24T16:51:57;10.20;74.60
67901;DHT22;54700;51.796;10.956;2023-04-24T16:54:24;10.30;73.80
67901;DHT22;54700;51.796;10.956;2023-04-24T16:56:51;10.40;73.60
67901;DHT22;54700;51.796;10.956;2023-04-24T16:59:19;10.40;72.10
67901;DHT22;54700;51.796;10.956;2023-04-24T17:01:46;10.30;72.10
67901;DHT22;54700;51.796;10.956;2023-04-24T17:04:13;10.40;72.60
67901;DHT22;54700;51.796;10.956;2023-04-24T17:06:41;10.40;71.10
67901;DHT22;54700;51.796;10.956;2023-04-24T17:09:08;10.40;70.70
67901;DHT22;54700;51.796;10.956;2023-04-24T17:11:37;10.50;70.20
67901;DHT22;54700;51.796;10.956;2023-04-24T17:14:04;10.40;68.70
67901;DHT22;54700;51.796;10.956;2023-04-24T17:16:32;10.40;67.20
67901;DHT22;54700;51.796;10.956;2023-04-24T17:19:00;10.40;67.10
67901;DHT22;54700;51.796;10.956;2023-04-24T17:21:29;10.40;68.50
67901;DHT22;54700;51.796;10.956;2023-04-24T17:24:07;10.50;69.80
67901;DHT22;54700;51.796;10.956;2023-04-24T17:26:34;10.50;67.10
67901;DHT22;54700;51.796;10.956;2023-04-24T17:29:04;10.40;65.70
67901;DHT22;54700;51.796;10.956;2023-04-24T17:31:35;10.40;64.40
67901;DHT22;54700;51.796;10.956;2023-04-24T17:34:03;10.40;64.30
67901;DHT22;54700;51.796;10.956;2023-04-24T17:36:32;10.40;64.50
67901;DHT22;54700;51.796;10.956;2023-04-24T17:39:02;10.30;64.10
67901;DHT22;54700;51.796;10.956;2023-04-24T17:41:31;10.40;64.90
67901;DHT22;54700;51.796;10.956;2023-04-24T17:43:59;10.40;65.30
67901;DHT22;54700;51.796;10.956;2023-04-24T17:46:26;10.30;64.40
67901;DHT22;54700;51.796;10.956;2023-04-24T17:48:55;10.30;65.30
67901;DHT22;54700;51.796;10.956;2023-04-24T17:51:28;10.20;65.00
67901;DHT22;54700;51.796;10.956;2023-04-24T17:53:55;10.30;64.90
67901;DHT22;54700;51.796;10.956;2023-04-24T17:56:23;10.20;65.20